createdAt,value
2022-10-31T00:09:28.337Z,5.30
2022-10-31T00:19:32.704Z,4.97
2022-10-31T00:29:35.830Z,4.80
2022-10-31T00:39:40.166Z,3.95
2022-10-31T00:49:43.134Z,4.18
2022-10-31T00:59:47.486Z,4.47
2022-10-31T01:09:50.454Z,4.35
2022-10-31T01:19:54.826Z,4.07
2022-10-31T01:29:57.807Z,4.03
2022-10-31T01:40:02.178Z,3.90
2022-10-31T01:50:11.726Z,3.70
2022-10-31T02:00:17.076Z,3.75
2022-10-31T02:10:22.370Z,3.80
2022-10-31T02:20:31.784Z,3.30
2022-10-31T02:30:43.422Z,3.70
2022-10-31T02:40:54.853Z,3.60
2022-10-31T02:51:00.890Z,3.43
2022-10-31T03:01:38.784Z,3.63
2022-10-31T03:11:50.677Z,3.20
2022-10-31T03:21:58.060Z,3.93
2022-10-31T03:32:05.071Z,3.67
2022-10-31T03:42:13.469Z,3.70
2022-10-31T03:52:25.989Z,3.80
2022-10-31T04:02:33.350Z,3.17
2022-10-31T04:12:38.031Z,3.50
2022-10-31T04:22:42.389Z,3.50
2022-10-31T04:32:45.377Z,3.40
2022-10-31T04:42:49.690Z,3.50
2022-10-31T04:52:52.665Z,3.37
2022-10-31T05:02:59.302Z,3.30
2022-10-31T05:13:05.125Z,3.77
2022-10-31T05:23:09.828Z,3.40
2022-10-31T05:33:12.828Z,3.17
2022-10-31T05:43:17.158Z,4.13
2022-10-31T05:53:20.168Z,3.60
2022-10-31T06:03:25.769Z,3.00
2022-10-31T06:13:28.755Z,3.40
2022-10-31T06:23:33.082Z,3.40
2022-10-31T06:33:36.868Z,3.53
2022-10-31T06:43:41.227Z,3.73
2022-10-31T06:53:44.175Z,3.63
2022-10-31T07:03:48.530Z,3.47
2022-10-31T07:13:51.489Z,3.07
2022-10-31T07:23:55.815Z,3.70
2022-10-31T07:33:58.809Z,3.78
2022-10-31T07:44:03.198Z,4.07
2022-10-31T07:54:06.303Z,4.57
2022-10-31T08:04:10.684Z,3.87
2022-10-31T08:14:13.670Z,4.65
2022-10-31T08:24:18.013Z,4.30
2022-10-31T08:34:21.025Z,3.95
2022-10-31T08:44:25.362Z,3.53
2022-10-31T08:54:28.313Z,3.42
2022-10-31T09:04:32.702Z,3.50
2022-10-31T09:14:35.696Z,3.45
2022-10-31T09:24:40.061Z,3.45
2022-10-31T09:34:43.061Z,3.20
2022-10-31T09:44:55.891Z,3.78
2022-10-31T09:55:04.189Z,3.65
2022-10-31T10:05:13.430Z,4.15
2022-10-31T10:15:39.979Z,3.80
2022-10-31T10:25:48.317Z,3.42
2022-10-31T10:35:54.355Z,3.70
2022-10-31T10:46:36.192Z,3.15
2022-10-31T10:56:51.151Z,2.92
2022-10-31T11:07:06.489Z,3.45
2022-10-31T11:17:13.295Z,2.90
2022-10-31T11:27:22.052Z,3.15
2022-10-31T11:37:27.885Z,3.08
2022-10-31T11:47:34.438Z,3.42
2022-10-31T11:57:45.825Z,2.58
2022-10-31T12:07:50.962Z,2.80
2022-10-31T12:18:02.805Z,3.53
2022-10-31T12:28:32.017Z,3.88
2022-10-31T12:39:03.421Z,4.35
2022-10-31T12:49:31.678Z,3.60
2022-10-31T12:59:38.877Z,3.30
2022-10-31T13:09:50.268Z,2.78
2022-10-31T13:20:00.956Z,2.88
2022-10-31T13:30:09.042Z,3.13
2022-10-31T13:40:19.584Z,3.08
2022-10-31T13:50:25.991Z,2.83
2022-10-31T14:00:29.282Z,2.78
2022-10-31T14:10:37.275Z,3.58
2022-10-31T14:20:42.590Z,3.45
2022-10-31T14:30:54.091Z,3.63
2022-10-31T14:41:22.901Z,4.05
2022-10-31T14:51:31.476Z,5.47
2022-10-31T15:01:37.920Z,9.00
2022-10-31T15:11:42.458Z,8.80
2022-10-31T15:21:47.369Z,8.93
2022-10-31T15:31:56.064Z,10.23
2022-10-31T15:42:01.250Z,12.20
2022-10-31T15:52:14.248Z,12.55
2022-10-31T16:02:21.379Z,12.02
2022-10-31T16:12:28.634Z,12.30
2022-10-31T16:22:33.892Z,12.18
2022-10-31T16:32:53.274Z,12.85
2022-10-31T16:42:59.456Z,12.75
2022-10-31T16:53:19.248Z,12.85
2022-10-31T17:03:22.465Z,12.35
2022-10-31T17:13:29.505Z,19.00
2022-10-31T17:23:33.254Z,15.43
2022-10-31T17:33:37.599Z,14.80
2022-10-31T17:43:40.715Z,15.20
2022-10-31T17:53:45.132Z,14.65
2022-10-31T18:03:48.179Z,14.57
2022-10-31T18:13:57.740Z,13.90
2022-10-31T18:24:02.856Z,15.73
2022-10-31T18:34:07.218Z,15.52
2022-10-31T18:44:10.691Z,16.55
2022-10-31T18:54:15.110Z,15.82
2022-10-31T19:04:18.097Z,17.20
2022-10-31T19:14:22.467Z,16.77
2022-10-31T19:24:25.594Z,16.30
2022-10-31T19:34:29.929Z,14.75
2022-10-31T19:44:34.624Z,12.02
2022-10-31T19:54:39.013Z,12.05
2022-10-31T20:04:41.998Z,12.18
2022-10-31T20:14:46.402Z,11.25
2022-10-31T20:24:49.735Z,11.80
2022-10-31T20:34:54.085Z,10.80
2022-10-31T20:44:57.042Z,11.32
2022-10-31T20:55:01.441Z,10.52
2022-10-31T21:05:08.287Z,10.93
2022-10-31T21:15:14.615Z,10.65
2022-10-31T21:25:18.205Z,10.13
2022-10-31T21:35:22.994Z,10.10
2022-10-31T21:45:26.072Z,10.27
2022-10-31T21:55:30.400Z,10.57
2022-10-31T22:05:35.272Z,12.60
2022-10-31T22:15:39.646Z,10.40
2022-10-31T22:25:42.664Z,10.32
2022-10-31T22:35:47.039Z,10.38
2022-10-31T22:45:55.507Z,9.82
2022-10-31T22:55:59.932Z,8.95
2022-10-31T23:06:04.685Z,8.32
2022-10-31T23:16:09.867Z,8.57
2022-10-31T23:26:30.090Z,9.30
2022-10-31T23:36:34.444Z,9.00
2022-10-31T23:46:37.428Z,8.90
2022-10-31T23:56:41.781Z,9.15
